Time;durP1;ratioP1;P1;durP2;ratioP2;P2;SDS_P1;SDS_P2;PMS_P1;PMS_P2;Temp;Humidity;BMP_temperature;BMP_pressure;BME280_temperature;BME280_humidity;BME280_pressure;Samples;Min_cycle;Max_cycle;Signal;HPM_P1;HPM_P2
2023/07/10 00:01:47;;;;;;;3.63;2.03;;;20.80;61.80;;;;;;5080011;28;20563;-80
2023/07/10 00:04:19;;;;;;;3.72;2.25;;;20.70;61.80;;;;;;5087789;28;20447;-80
2023/07/10 00:06:47;;;;;;;4.25;2.05;;;20.70;61.60;;;;;;5083489;28;20118;-80
2023/07/10 00:09:14;;;;;;;3.95;2.15;;;20.70;61.80;;;;;;5081124;28;20048;-80
2023/07/10 00:11:42;;;;;;;5.05;2.45;;;20.70;62.10;;;;;;5085152;28;20138;-80
2023/07/10 00:14:18;;;;;;;4.18;2.00;;;20.60;62.00;;;;;;5089911;28;20138;-80
2023/07/10 00:16:45;;;;;;;9.38;2.45;;;20.60;61.50;;;;;;5090680;28;20131;-80
2023/07/10 00:19:14;;;;;;;6.32;2.45;;;20.70;61.80;;;;;;5085718;28;20942;-80
2023/07/10 00:21:41;;;;;;;8.40;1.83;;;20.60;62.00;;;;;;5081837;28;20060;-80
2023/07/10 00:24:08;;;;;;;3.72;1.95;;;20.70;61.80;;;;;;5086630;28;20059;-80
2023/07/10 00:26:37;;;;;;;8.63;2.40;;;20.70;61.70;;;;;;5103304;28;20059;-80
2023/07/10 00:29:26;;;;;;;3.83;1.98;;;20.70;61.30;;;;;;5095781;28;20047;-80
2023/07/10 00:31:53;;;;;;;5.25;2.13;;;20.70;61.40;;;;;;5087544;28;20838;-80
2023/07/10 00:34:25;;;;;;;3.35;2.17;;;20.70;62.70;;;;;;5087066;28;20699;-80
2023/07/10 00:36:53;;;;;;;3.25;1.98;;;20.70;62.60;;;;;;5081626;28;20447;-80
2023/07/10 00:39:27;;;;;;;4.45;2.20;;;20.70;62.90;;;;;;5086494;28;20059;-80
2023/07/10 00:42:00;;;;;;;8.68;2.63;;;20.70;63.00;;;;;;5081144;28;20127;-80
2023/07/10 00:44:39;;;;;;;11.40;2.15;;;20.70;63.40;;;;;;5085113;28;20052;-80
2023/07/10 00:47:16;;;;;;;5.35;2.30;;;20.60;62.90;;;;;;5088419;28;20133;-80
2023/07/10 00:49:48;;;;;;;5.70;1.95;;;20.60;63.30;;;;;;5086017;28;20049;-79
2023/07/10 00:52:25;;;;;;;10.38;2.33;;;20.50;64.10;;;;;;5087755;28;20715;-79
2023/07/10 00:54:54;;;;;;;3.75;2.13;;;20.50;63.20;;;;;;5104885;28;20052;-80
2023/07/10 00:57:33;;;;;;;4.53;2.50;;;20.50;63.60;;;;;;5083718;28;20447;-80
2023/07/10 01:00:13;;;;;;;3.75;1.90;;;20.40;64.20;;;;;;5106891;28;20052;-79
2023/07/10 01:02:40;;;;;;;11.07;2.25;;;20.40;63.70;;;;;;5084854;28;20104;-80
2023/07/10 01:05:08;;;;;;;4.13;2.08;;;20.40;64.40;;;;;;5073669;28;20050;-80
2023/07/10 01:07:41;;;;;;;4.53;1.95;;;20.40;64.00;;;;;;5102305;28;20086;-80
2023/07/10 01:10:10;;;;;;;6.32;2.22;;;20.30;63.80;;;;;;5087657;28;20060;-80
2023/07/10 01:12:40;;;;;;;7.82;2.25;;;20.30;63.40;;;;;;5085796;28;20504;-79
2023/07/10 01:15:08;;;;;;;6.35;2.15;;;20.20;63.80;;;;;;5088224;28;20041;-80
2023/07/10 01:17:36;;;;;;;5.53;2.22;;;20.20;62.90;;;;;;5086982;28;20110;-81
2023/07/10 01:20:20;;;;;;;3.25;1.95;;;20.20;62.10;;;;;;5083384;28;20813;-80
2023/07/10 01:22:47;;;;;;;3.08;2.00;;;20.20;62.20;;;;;;5101428;28;20048;-80
2023/07/10 01:25:14;;;;;;;7.82;2.00;;;20.10;61.70;;;;;;5084418;28;20044;-80
2023/07/10 01:27:41;;;;;;;3.58;1.70;;;20.10;62.20;;;;;;5087587;28;20071;-80
2023/07/10 01:30:27;;;;;;;3.35;2.13;;;20.10;61.80;;;;;;5076953;28;20122;-80
2023/07/10 01:32:56;;;;;;;7.75;2.25;;;20.10;62.50;;;;;;5086928;28;20055;-80
2023/07/10 01:35:27;;;;;;;6.68;1.70;;;20.10;61.90;;;;;;5077234;28;20101;-80
2023/07/10 01:37:54;;;;;;;7.22;2.15;;;20.10;61.80;;;;;;5088588;28;20097;-81
2023/07/10 01:40:28;;;;;;;5.95;1.98;;;20.10;62.40;;;;;;5080341;28;20131;-81
2023/07/10 01:42:58;;;;;;;4.13;1.95;;;20.10;62.10;;;;;;5087375;28;20056;-80
2023/07/10 01:45:27;;;;;;;5.10;2.13;;;20.10;61.70;;;;;;5083472;28;20155;-80
2023/07/10 01:47:55;;;;;;;5.82;2.08;;;20.10;61.90;;;;;;5086867;28;20082;-80
2023/07/10 01:50:23;;;;;;;3.53;2.20;;;20.10;61.70;;;;;;5086651;28;20106;-80
2023/07/10 01:52:50;;;;;;;3.03;1.98;;;20.10;61.80;;;;;;5080819;28;20144;-80
2023/07/10 01:55:19;;;;;;;2.42;1.70;;;20.10;61.70;;;;;;5085493;28;20097;-80
2023/07/10 01:57:46;;;;;;;6.47;2.10;;;20.10;61.40;;;;;;5079288;28;20048;-80
2023/07/10 02:00:14;;;;;;;6.25;2.03;;;20.10;61.10;;;;;;5084007;28;20052;-80
2023/07/10 02:02:41;;;;;;;4.75;2.22;;;20.10;60.90;;;;;;5083723;28;20056;-80
2023/07/10 02:05:08;;;;;;;4.50;2.05;;;20.10;60.80;;;;;;5105195;28;20051;-80
2023/07/10 02:07:35;;;;;;;11.55;2.40;;;20.10;60.60;;;;;;5082183;28;20689;-80
2023/07/10 02:10:03;;;;;;;4.70;2.13;;;20.10;60.40;;;;;;5084703;28;20127;-80
2023/07/10 02:12:29;;;;;;;3.60;2.45;;;20.10;60.00;;;;;;5082380;28;20040;-80
2023/07/10 02:14:56;;;;;;;3.78;2.20;;;20.10;59.70;;;;;;5079529;28;20054;-80
2023/07/10 02:17:23;;;;;;;7.05;2.15;;;20.20;59.60;;;;;;5080280;28;20814;-79
2023/07/10 02:19:50;;;;;;;2.83;1.67;;;20.20;59.60;;;;;;5083768;28;20054;-80
2023/07/10 02:22:20;;;;;;;5.35;2.33;;;20.20;59.70;;;;;;5075698;28;20052;-80
2023/07/10 02:24:47;;;;;;;5.07;2.50;;;20.20;60.10;;;;;;5087030;28;20056;-80
2023/07/10 02:27:14;;;;;;;3.05;1.80;;;20.20;60.10;;;;;;5081884;28;20044;-80
2023/07/10 02:29:41;;;;;;;3.53;1.88;;;20.20;60.40;;;;;;5088054;28;20105;-80
2023/07/10 02:32:08;;;;;;;3.05;2.00;;;20.20;60.60;;;;;;5081259;28;20540;-80
2023/07/10 02:34:35;;;;;;;4.97;1.70;;;20.10;60.70;;;;;;5088768;28;20466;-80
2023/07/10 02:37:02;;;;;;;7.82;3.03;;;20.10;60.80;;;;;;5089368;28;20879;-80
2023/07/10 02:39:28;;;;;;;5.28;2.40;;;20.10;60.90;;;;;;5075733;28;20037;-80
2023/07/10 02:41:55;;;;;;;5.75;2.45;;;20.10;60.60;;;;;;5086400;28;20063;-80
2023/07/10 02:44:22;;;;;;;4.95;2.15;;;20.10;60.80;;;;;;5081299;28;20056;-80
2023/07/10 02:46:49;;;;;;;5.53;3.55;;;20.00;60.80;;;;;;5090059;28;20119;-80
2023/07/10 02:49:16;;;;;;;3.08;1.92;;;20.00;61.20;;;;;;5105372;28;20479;-80
2023/07/10 02:51:43;;;;;;;3.83;2.30;;;20.00;61.10;;;;;;5082241;28;20101;-80
2023/07/10 02:54:11;;;;;;;3.17;2.00;;;19.90;61.30;;;;;;5097305;28;20076;-80
2023/07/10 02:56:39;;;;;;;4.13;1.98;;;19.90;61.70;;;;;;5079239;28;20083;-80
2023/07/10 02:59:06;;;;;;;5.07;2.40;;;19.80;62.00;;;;;;5085918;28;20083;-80
2023/07/10 03:01:32;;;;;;;6.50;2.08;;;19.80;61.90;;;;;;5091494;28;20147;-80
2023/07/10 03:04:00;;;;;;;4.70;2.25;;;19.80;62.60;;;;;;5078415;28;20118;-80
2023/07/10 03:06:27;;;;;;;3.92;1.85;;;19.80;62.40;;;;;;5082732;28;20135;-80
2023/07/10 03:08:54;;;;;;;2.60;1.85;;;19.80;62.50;;;;;;5083074;28;20538;-80
2023/07/10 03:11:22;;;;;;;2.95;2.05;;;19.70;62.30;;;;;;5083399;28;20045;-81
2023/07/10 03:13:49;;;;;;;4.57;2.13;;;19.70;62.40;;;;;;5086809;28;20051;-80
2023/07/10 03:16:16;;;;;;;4.63;1.85;;;19.70;62.90;;;;;;5087274;28;20126;-81
2023/07/10 03:18:44;;;;;;;3.25;2.05;;;19.70;63.20;;;;;;5072407;28;20140;-80
2023/07/10 03:21:11;;;;;;;4.53;2.20;;;19.70;63.60;;;;;;5085727;28;20464;-80
2023/07/10 03:23:38;;;;;;;5.47;2.03;;;19.70;63.20;;;;;;5087792;28;20056;-80
2023/07/10 03:26:05;;;;;;;5.00;2.45;;;19.70;63.20;;;;;;5080489;28;20155;-80
2023/07/10 03:28:38;;;;;;;3.45;2.25;;;19.60;63.10;;;;;;5094093;28;20269;-80
2023/07/10 03:31:11;;;;;;;3.00;2.08;;;19.60;63.10;;;;;;5088637;28;20044;-80
2023/07/10 03:33:38;;;;;;;6.03;2.10;;;19.60;63.40;;;;;;5087425;28;20056;-80
2023/07/10 03:36:07;;;;;;;7.65;2.10;;;19.60;64.20;;;;;;5080035;28;20431;-80
2023/07/10 03:38:35;;;;;;;4.80;1.95;;;19.60;64.20;;;;;;5084212;28;20063;-80
2023/07/10 03:41:03;;;;;;;5.85;2.30;;;19.60;64.90;;;;;;5085733;28;20063;-80
2023/07/10 03:43:30;;;;;;;4.30;2.40;;;19.70;63.90;;;;;;5095789;28;20089;-79
2023/07/10 03:45:57;;;;;;;4.60;2.08;;;19.70;63.90;;;;;;5082883;28;20608;-80
2023/07/10 03:48:24;;;;;;;5.53;2.25;;;19.70;64.40;;;;;;5088239;28;20051;-80
2023/07/10 03:50:51;;;;;;;4.18;2.33;;;19.70;64.10;;;;;;5082441;28;20531;-80
2023/07/10 03:53:18;;;;;;;3.53;1.90;;;19.70;63.90;;;;;;5086671;28;20044;-80
2023/07/10 03:55:54;;;;;;;3.30;2.13;;;19.80;63.80;;;;;;5091675;28;20404;-80
2023/07/10 03:58:31;;;;;;;4.13;2.05;;;19.80;63.60;;;;;;5081465;28;20094;-80
2023/07/10 04:01:00;;;;;;;5.75;2.20;;;19.80;63.90;;;;;;5085817;28;20048;-81
2023/07/10 04:03:30;;;;;;;3.67;2.30;;;19.80;65.10;;;;;;5079987;28;20044;-81
2023/07/10 04:05:58;;;;;;;9.52;2.20;;;19.80;65.00;;;;;;5087183;28;20056;-80
2023/07/10 04:08:34;;;;;;;13.07;2.83;;;19.80;65.70;;;;;;5085520;28;20132;-80
2023/07/10 04:11:11;;;;;;;6.30;2.33;;;19.80;68.10;;;;;;5087048;28;20116;-80
2023/07/10 04:13:39;;;;;;;12.05;3.22;;;19.80;70.40;;;;;;5089914;28;20044;-80
2023/07/10 04:16:10;;;;;;;7.18;2.22;;;19.80;73.30;;;;;;5080391;28;20094;-80
2023/07/10 04:18:39;;;;;;;10.43;3.33;;;19.70;72.70;;;;;;5083466;28;20718;-80
2023/07/10 04:21:10;;;;;;;11.25;2.70;;;19.60;72.80;;;;;;5103545;28;20062;-80
2023/07/10 04:23:37;;;;;;;5.80;2.63;;;19.60;73.40;;;;;;5080384;28;20707;-81
2023/07/10 04:26:06;;;;;;;7.32;2.50;;;19.50;71.60;;;;;;5079743;28;20445;-80
2023/07/10 04:28:33;;;;;;;6.57;2.58;;;19.50;72.80;;;;;;5080640;28;20059;-80
2023/07/10 04:31:00;;;;;;;6.15;2.67;;;19.50;72.80;;;;;;5080940;28;20127;-80
2023/07/10 04:33:27;;;;;;;8.63;2.90;;;19.50;72.00;;;;;;5092099;28;20680;-80
2023/07/10 04:35:56;;;;;;;6.80;2.28;;;19.40;72.10;;;;;;5103251;28;20477;-80
2023/07/10 04:38:28;;;;;;;5.20;2.60;;;19.40;71.90;;;;;;5083682;28;20106;-79
2023/07/10 04:40:56;;;;;;;8.70;2.97;;;19.30;72.40;;;;;;5102521;28;20097;-80
2023/07/10 04:43:25;;;;;;;5.88;2.80;;;19.30;72.20;;;;;;5087995;28;20052;-80
2023/07/10 04:45:54;;;;;;;8.52;2.78;;;19.30;72.20;;;;;;5090412;28;20129;-81
2023/07/10 04:48:22;;;;;;;3.95;2.28;;;19.20;72.00;;;;;;5080275;28;20054;-82
2023/07/10 04:50:51;;;;;;;5.50;2.72;;;19.20;71.10;;;;;;5088540;28;20126;-81
2023/07/10 04:53:19;;;;;;;7.85;2.25;;;19.20;71.30;;;;;;5088117;28;20131;-80
2023/07/10 04:55:51;;;;;;;4.65;2.75;;;19.20;70.90;;;;;;5084017;28;20105;-83
2023/07/10 04:58:19;;;;;;;4.93;2.70;;;19.20;69.70;;;;;;5074776;28;20564;-78
2023/07/10 05:00:54;;;;;;;14.68;2.75;;;19.20;69.70;;;;;;5105093;28;20064;-83
2023/07/10 05:03:21;;;;;;;27.80;3.35;;;19.20;70.50;;;;;;5089265;28;20051;-77
2023/07/10 05:05:56;;;;;;;7.20;2.67;;;19.20;71.40;;;;;;5090551;28;20052;-85
2023/07/10 05:08:25;;;;;;;7.55;2.55;;;19.20;71.40;;;;;;5087798;28;20109;-93
2023/07/10 05:10:54;;;;;;;3.25;2.28;;;19.20;71.50;;;;;;5080210;28;20660;-89
2023/07/10 05:13:23;;;;;;;7.50;2.35;;;19.30;71.70;;;;;;5079209;28;20072;-89
2023/07/10 05:15:51;;;;;;;8.60;2.67;;;19.30;70.50;;;;;;5081922;28;20075;-83
2023/07/10 05:18:18;;;;;;;9.95;3.03;;;19.40;70.30;;;;;;5082399;28;20040;-84
2023/07/10 05:20:47;;;;;;;6.57;2.83;;;19.50;70.70;;;;;;5086090;28;20127;-80
2023/07/10 05:23:15;;;;;;;7.15;2.45;;;19.60;71.10;;;;;;5090454;28;20105;-82
2023/07/10 05:26:05;;;;;;;6.75;2.60;;;19.60;70.30;;;;;;5086298;28;20056;-83
2023/07/10 05:28:33;;;;;;;5.82;2.40;;;19.70;69.80;;;;;;5087502;28;20110;-81
2023/07/10 05:31:01;;;;;;;8.70;2.60;;;19.80;71.10;;;;;;5100567;28;20040;-85
2023/07/10 05:33:30;;;;;;;11.98;2.90;;;19.80;69.30;;;;;;5079975;28;20054;-83
2023/07/10 05:36:00;;;;;;;6.25;2.95;;;19.80;69.30;;;;;;5084004;28;20044;-81
2023/07/10 05:38:30;;;;;;;12.93;2.47;;;19.80;69.40;;;;;;5099378;28;20055;-81
2023/07/10 05:40:58;;;;;;;10.68;3.05;;;19.80;70.20;;;;;;5088360;28;20106;-81
2023/07/10 05:43:24;;;;;;;4.40;2.60;;;19.90;70.00;;;;;;5081798;28;20051;-81
2023/07/10 05:45:53;;;;;;;6.63;2.65;;;19.90;70.10;;;;;;5083693;28;20052;-81
2023/07/10 05:48:21;;;;;;;3.85;2.40;;;19.90;69.70;;;;;;5080075;28;20138;-80
2023/07/10 05:50:48;;;;;;;4.32;2.53;;;19.90;69.70;;;;;;5084899;28;20132;-81
2023/07/10 05:53:16;;;;;;;6.03;3.10;;;19.90;69.80;;;;;;5091507;28;20047;-80
2023/07/10 05:55:47;;;;;;;4.63;2.63;;;19.90;70.60;;;;;;5091126;28;20059;-81
2023/07/10 05:58:16;;;;;;;7.22;2.70;;;19.90;70.80;;;;;;5090099;28;20502;-81
2023/07/10 06:00:43;;;;;;;6.68;2.83;;;19.90;70.60;;;;;;5085051;28;20602;-80
2023/07/10 06:03:10;;;;;;;3.92;2.53;;;20.00;70.10;;;;;;5079773;28;20543;-81
2023/07/10 06:05:37;;;;;;;8.73;3.13;;;20.00;69.20;;;;;;5081576;28;20060;-81
2023/07/10 06:08:05;;;;;;;7.82;2.78;;;20.00;69.90;;;;;;5087867;28;20055;-81
2023/07/10 06:10:35;;;;;;;4.30;2.80;;;20.10;70.40;;;;;;5085556;28;20084;-81
2023/07/10 06:13:02;;;;;;;8.18;3.22;;;20.10;70.00;;;;;;5084199;28;20151;-81
2023/07/10 06:15:30;;;;;;;6.25;2.60;;;20.20;69.30;;;;;;5097472;28;20040;-81
2023/07/10 06:17:57;;;;;;;4.00;2.70;;;20.30;68.60;;;;;;5075830;28;20864;-81
2023/07/10 06:20:24;;;;;;;6.10;2.80;;;20.40;70.30;;;;;;5105814;28;20059;-81
2023/07/10 06:22:51;;;;;;;3.47;2.47;;;20.50;69.90;;;;;;5089316;28;20097;-80
2023/07/10 06:25:17;;;;;;;9.00;3.38;;;20.50;69.90;;;;;;5085935;28;20109;-86
2023/07/10 06:27:44;;;;;;;6.10;3.08;;;20.60;69.90;;;;;;5087386;28;20131;-86
2023/07/10 06:30:12;;;;;;;6.47;2.22;;;20.70;69.90;;;;;;5080954;28;20408;-86
2023/07/10 06:32:40;;;;;;;8.15;2.90;;;20.70;69.90;;;;;;5076802;28;20048;-85
2023/07/10 06:35:12;;;;;;;5.97;2.95;;;20.80;69.50;;;;;;5079753;28;20067;-86
2023/07/10 06:37:44;;;;;;;4.97;2.58;;;20.80;69.70;;;;;;5090049;28;20051;-86
2023/07/10 06:40:15;;;;;;;5.43;3.20;;;20.80;70.20;;;;;;5083136;28;20044;-87
2023/07/10 06:42:43;;;;;;;7.03;2.60;;;20.80;70.00;;;;;;5088458;28;20051;-85
2023/07/10 06:45:11;;;;;;;4.97;2.53;;;20.90;70.80;;;;;;5072096;28;20080;-85
2023/07/10 06:47:41;;;;;;;5.68;2.42;;;21.00;69.50;;;;;;5082328;28;20083;-85
2023/07/10 06:50:09;;;;;;;7.72;2.97;;;21.10;70.80;;;;;;5101855;28;20058;-85
2023/07/10 06:52:42;;;;;;;8.48;3.53;;;21.40;68.90;;;;;;5080401;28;20131;-85
2023/07/10 06:55:12;;;;;;;9.02;3.03;;;21.60;68.60;;;;;;5077301;28;20094;-86
2023/07/10 06:57:39;;;;;;;4.20;2.80;;;21.70;67.90;;;;;;5091172;28;20113;-86
2023/07/10 07:00:08;;;;;;;9.55;3.00;;;21.80;67.80;;;;;;5085028;28;20052;-86
2023/07/10 07:02:36;;;;;;;4.80;2.90;;;22.00;68.20;;;;;;5085317;28;20492;-86
2023/07/10 07:05:04;;;;;;;6.15;2.95;;;22.30;66.60;;;;;;5084095;28;20134;-85
2023/07/10 07:07:32;;;;;;;5.05;2.83;;;22.50;65.60;;;;;;5071964;28;20048;-86
2023/07/10 07:09:58;;;;;;;4.07;2.80;;;22.70;65.70;;;;;;5087419;28;20058;-85
2023/07/10 07:12:26;;;;;;;14.43;3.60;;;23.00;66.60;;;;;;5085947;28;20040;-85
2023/07/10 07:14:53;;;;;;;6.35;2.78;;;23.20;64.80;;;;;;5082479;28;20044;-87
2023/07/10 07:17:20;;;;;;;9.63;2.67;;;23.30;63.60;;;;;;5072062;28;20624;-87
2023/07/10 07:19:47;;;;;;;3.67;2.50;;;23.40;64.30;;;;;;5088898;22;20048;-86
2023/07/10 07:22:14;;;;;;;10.70;3.30;;;23.50;63.40;;;;;;5059426;28;20052;-86
2023/07/10 07:24:41;;;;;;;8.18;3.13;;;23.50;62.10;;;;;;5057143;28;20583;-86
2023/07/10 07:27:09;;;;;;;9.20;3.22;;;23.60;61.90;;;;;;5056803;28;20056;-86
2023/07/10 07:29:35;;;;;;;6.40;3.08;;;23.70;63.60;;;;;;5046613;28;20850;-86
2023/07/10 07:32:03;;;;;;;7.18;3.38;;;23.90;63.30;;;;;;5051819;28;20040;-85
2023/07/10 07:34:30;;;;;;;8.93;3.08;;;24.10;60.60;;;;;;5067648;28;20747;-85
2023/07/10 07:36:57;;;;;;;5.65;3.45;;;24.30;61.60;;;;;;5052356;28;20067;-86
2023/07/10 07:39:30;;;;;;;7.65;3.40;;;24.40;62.40;;;;;;5047371;28;20067;-84
2023/07/10 07:41:58;;;;;;;7.43;3.60;;;24.60;60.30;;;;;;5064351;28;20068;-86
2023/07/10 07:44:25;;;;;;;10.20;3.53;;;24.80;59.10;;;;;;5046788;28;20048;-87
2023/07/10 07:46:52;;;;;;;8.55;3.58;;;24.80;60.90;;;;;;5066875;28;20051;-87
2023/07/10 07:49:21;;;;;;;11.35;3.88;;;24.80;60.20;;;;;;5046384;28;20052;-87
2023/07/10 07:51:48;;;;;;;8.60;3.75;;;24.80;61.00;;;;;;5059547;28;20045;-87
2023/07/10 07:54:15;;;;;;;13.50;3.88;;;24.80;60.20;;;;;;5068117;28;20546;-86
2023/07/10 07:56:42;;;;;;;11.63;3.40;;;24.80;61.00;;;;;;5067389;28;20051;-86
2023/07/10 07:59:09;;;;;;;8.32;3.47;;;24.70;61.60;;;;;;5054176;28;20480;-86
2023/07/10 08:01:36;;;;;;;8.48;3.78;;;24.60;61.40;;;;;;5050781;28;20064;-86
2023/07/10 08:04:04;;;;;;;7.93;3.60;;;24.50;62.80;;;;;;5057153;28;20080;-87
2023/07/10 08:06:33;;;;;;;5.45;3.67;;;24.40;63.00;;;;;;5067318;28;20063;-87
2023/07/10 08:09:00;;;;;;;10.18;4.15;;;24.30;64.10;;;;;;5052156;28;20056;-86
2023/07/10 08:11:28;;;;;;;7.97;4.30;;;24.30;65.30;;;;;;5046520;28;20037;-86
2023/07/10 08:13:54;;;;;;;11.45;3.85;;;24.20;67.20;;;;;;5067438;28;20041;-86
2023/07/10 08:16:22;;;;;;;7.78;3.75;;;24.00;67.30;;;;;;5064235;28;20044;-85
2023/07/10 08:18:49;;;;;;;13.30;4.10;;;24.00;66.80;;;;;;5051882;28;20056;-86
2023/07/10 08:21:17;;;;;;;9.88;4.63;;;23.90;66.30;;;;;;5046800;28;20048;-87
2023/07/10 08:23:44;;;;;;;8.75;4.47;;;23.90;68.00;;;;;;5072722;28;20056;-87
2023/07/10 08:26:11;;;;;;;7.63;3.95;;;23.90;67.50;;;;;;5068535;28;20053;-86
2023/07/10 08:28:38;;;;;;;10.18;4.93;;;23.90;67.60;;;;;;5066304;28;20076;-86
2023/07/10 08:31:05;;;;;;;8.18;4.05;;;24.00;67.90;;;;;;5073721;28;20060;-87
2023/07/10 08:33:32;;;;;;;12.82;4.65;;;24.20;69.20;;;;;;5052374;28;20404;-86
2023/07/10 08:36:02;;;;;;;9.40;4.30;;;24.50;68.40;;;;;;5066516;28;20079;-86
2023/07/10 08:38:31;;;;;;;16.40;5.57;;;25.00;64.70;;;;;;5076200;28;20047;-81
2023/07/10 08:41:12;;;;;;;11.18;5.93;;;25.20;64.00;;;;;;5046148;28;20044;-81
2023/07/10 08:43:40;;;;;;;15.95;5.22;;;25.40;62.90;;;;;;5072998;28;20133;-81
2023/07/10 08:46:14;;;;;;;10.45;4.93;;;25.40;62.50;;;;;;5061119;28;20040;-81
2023/07/10 08:49:03;;;;;;;5.43;4.25;;;25.40;61.40;;;;;;5071955;28;20052;-81
2023/07/10 08:51:39;;;;;;;8.27;4.93;;;25.40;61.10;;;;;;5070636;28;20554;-81
2023/07/10 08:54:18;;;;;;;11.50;5.07;;;25.30;61.80;;;;;;5062522;28;20083;-81
2023/07/10 08:56:45;;;;;;;10.70;4.50;;;25.20;62.00;;;;;;5054359;28;20048;-81
2023/07/10 08:59:27;;;;;;;10.90;4.78;;;25.20;61.90;;;;;;5067634;28;20076;-81
2023/07/10 09:01:56;;;;;;;11.38;5.28;;;25.20;61.10;;;;;;5063500;28;20064;-81
2023/07/10 09:04:25;;;;;;;7.95;5.10;;;25.10;61.40;;;;;;5071029;28;20519;-82
2023/07/10 09:06:56;;;;;;;15.07;5.95;;;25.00;62.70;;;;;;5045620;28;20770;-81
2023/07/10 09:09:36;;;;;;;23.95;6.10;;;24.80;68.50;;;;;;5065620;28;20055;-81
2023/07/10 09:12:36;;;;;;;10.80;6.15;;;24.50;70.10;;;;;;5062043;28;20052;-82
2023/07/10 09:15:26;;;;;;;11.48;5.70;;;24.00;72.00;;;;;;5059514;28;20131;-81
2023/07/10 09:18:12;;;;;;;12.93;6.60;;;23.70;73.40;;;;;;5066636;28;20783;-82
2023/07/10 09:20:40;;;;;;;10.95;6.57;;;23.40;77.10;;;;;;5050706;28;20136;-82
2023/07/10 09:23:18;;;;;;;12.02;6.95;;;23.20;77.20;;;;;;5062711;28;20703;-82
2023/07/10 09:25:44;;;;;;;10.98;7.10;;;23.00;78.50;;;;;;5061065;28;20171;-82
2023/07/10 09:28:11;;;;;;;12.15;6.38;;;22.80;79.40;;;;;;5065475;28;20114;-82
2023/07/10 09:30:51;;;;;;;12.10;7.45;;;22.70;78.60;;;;;;5072074;28;20059;-82
2023/07/10 09:33:20;;;;;;;9.88;6.45;;;22.70;79.60;;;;;;5042872;28;20040;-82
2023/07/10 09:35:47;;;;;;;13.50;7.28;;;22.60;81.30;;;;;;5052181;28;20059;-82
2023/07/10 09:38:18;;;;;;;12.07;6.93;;;22.60;79.60;;;;;;5051012;28;20056;-82
2023/07/10 09:40:50;;;;;;;11.40;6.82;;;22.60;80.30;;;;;;5052315;28;20547;-82
2023/07/10 09:43:20;;;;;;;15.15;7.32;;;22.60;78.90;;;;;;5045653;28;20516;-82
2023/07/10 09:45:51;;;;;;;14.68;7.10;;;22.60;80.00;;;;;;5071077;28;20051;-82
2023/07/10 09:48:21;;;;;;;12.27;7.60;;;22.60;79.40;;;;;;5046677;28;20576;-82
2023/07/10 09:50:51;;;;;;;13.52;7.25;;;22.60;80.00;;;;;;5057247;28;20509;-82
2023/07/10 09:53:34;;;;;;;13.02;7.10;;;22.60;78.10;;;;;;5043501;28;20492;-82
2023/07/10 09:56:01;;;;;;;14.40;7.97;;;22.60;77.70;;;;;;5062319;28;20076;-82
2023/07/10 09:58:29;;;;;;;9.25;6.97;;;22.70;77.90;;;;;;5058879;28;20077;-82
2023/07/10 10:01:01;;;;;;;13.00;7.88;;;22.70;74.70;;;;;;5043411;28;20045;-82
2023/07/10 10:03:36;;;;;;;12.38;6.90;;;22.80;76.60;;;;;;5040680;28;20055;-83
2023/07/10 10:06:04;;;;;;;10.50;7.28;;;22.80;74.10;;;;;;5060714;28;20747;-83
2023/07/10 10:08:45;;;;;;;13.10;7.05;;;22.90;73.70;;;;;;5065677;28;20468;-82
2023/07/10 10:11:12;;;;;;;14.10;7.68;;;22.90;73.90;;;;;;5067076;28;20090;-83
2023/07/10 10:13:47;;;;;;;9.18;6.47;;;23.00;74.40;;;;;;5049754;28;20435;-83
2023/07/10 10:16:35;;;;;;;11.80;7.25;;;23.10;73.40;;;;;;5069220;28;21286;-83
2023/07/10 10:19:21;;;;;;;10.57;7.60;;;23.20;72.60;;;;;;5068817;28;20040;-82
2023/07/10 10:21:48;;;;;;;10.82;7.57;;;23.20;74.00;;;;;;5052970;28;20465;-83
2023/07/10 10:24:15;;;;;;;13.10;7.72;;;23.30;73.80;;;;;;5052690;28;20056;-83
2023/07/10 10:27:03;;;;;;;13.00;7.75;;;23.40;74.30;;;;;;5047408;28;20071;-82
2023/07/10 10:29:50;;;;;;;11.18;7.82;;;23.40;72.80;;;;;;5047700;28;20106;-83
2023/07/10 10:32:32;;;;;;;11.40;8.10;;;23.50;73.60;;;;;;5053395;28;20045;-82
2023/07/10 10:35:22;;;;;;;11.00;8.23;;;23.50;72.90;;;;;;5051068;28;20044;-82
2023/07/10 10:38:05;;;;;;;11.93;9.15;;;23.40;72.90;;;;;;5048807;28;20060;-83
2023/07/10 10:40:50;;;;;;;12.18;8.45;;;23.40;73.00;;;;;;5063602;28;20110;-82
2023/07/10 10:43:23;;;;;;;14.95;8.45;;;23.40;72.00;;;;;;5070497;28;20048;-83
2023/07/10 10:45:56;;;;;;;14.32;9.18;;;23.40;73.80;;;;;;5068360;28;20076;-83
2023/07/10 10:48:54;;;;;;;18.33;9.88;;;23.30;73.60;;;;;;5065680;28;20492;-82
2023/07/10 10:51:44;;;;;;;20.85;11.32;;;23.20;77.10;;;;;;5060082;28;20058;-83
2023/07/10 10:54:23;;;;;;;17.27;11.45;;;22.80;78.40;;;;;;5036686;28;20644;-83
2023/07/10 10:57:12;;;;;;;26.10;12.20;;;22.30;81.40;;;;;;5051746;28;20040;-82
2023/07/10 10:59:51;;;;;;;22.15;12.95;;;21.80;84.70;;;;;;5066580;28;20651;-81
2023/07/10 11:02:59;;;;;;;23.38;13.25;;;21.40;86.50;;;;;;5069117;28;20037;-82
2023/07/10 11:05:34;;;;;;;19.33;12.77;;;21.20;88.50;;;;;;4979012;28;20069;-81
2023/07/10 11:08:09;;;;;;;21.63;13.38;;;21.00;90.40;;;;;;5048435;28;20444;-81
2023/07/10 11:10:39;;;;;;;26.55;15.27;;;20.80;91.40;;;;;;5046395;28;20044;-82
2023/07/10 11:13:35;;;;;;;26.67;14.93;;;20.70;91.70;;;;;;5038808;28;20045;-80
2023/07/10 11:16:04;;;;;;;22.88;13.50;;;20.50;92.20;;;;;;5069429;28;20044;-82
2023/07/10 11:18:33;;;;;;;21.10;13.93;;;20.30;92.10;;;;;;5046973;28;20339;-82
2023/07/10 11:21:01;;;;;;;22.58;15.65;;;20.20;93.40;;;;;;5067236;28;20135;-81
2023/07/10 11:23:40;;;;;;;29.52;16.38;;;20.20;94.60;;;;;;5048885;28;20079;-81
2023/07/10 11:26:21;;;;;;;27.33;16.40;;;20.20;95.00;;;;;;5051152;28;20048;-82
2023/07/10 11:28:55;;;;;;;32.60;17.38;;;20.20;95.30;;;;;;5050573;28;20048;-81
2023/07/10 11:31:31;;;;;;;28.15;17.60;;;20.20;95.70;;;;;;5053179;28;20484;-81
2023/07/10 11:34:24;;;;;;;30.40;17.30;;;20.20;96.10;;;;;;5046534;28;20052;-82
2023/07/10 11:36:51;;;;;;;28.65;16.45;;;20.20;95.50;;;;;;5046467;28;20049;-82
2023/07/10 11:39:29;;;;;;;28.40;16.92;;;20.20;96.40;;;;;;5047397;28;20044;-82
2023/07/10 11:41:56;;;;;;;27.40;17.52;;;20.20;97.20;;;;;;5067963;28;20090;-81
2023/07/10 11:44:31;;;;;;;28.42;18.05;;;20.30;97.00;;;;;;5052862;28;20403;-82
2023/07/10 11:46:58;;;;;;;28.52;17.83;;;20.30;96.40;;;;;;5076140;28;20546;-81
2023/07/10 11:49:42;;;;;;;32.72;18.42;;;20.30;96.40;;;;;;5074862;28;20090;-84
2023/07/10 11:52:15;;;;;;;28.23;17.27;;;20.40;97.00;;;;;;5070804;28;20048;-82
2023/07/10 11:54:47;;;;;;;26.13;17.05;;;20.40;97.20;;;;;;5050244;28;20048;-82
2023/07/10 11:57:22;;;;;;;30.30;18.38;;;20.50;97.90;;;;;;5051746;28;20049;-83
2023/07/10 12:00:05;;;;;;;30.27;18.87;;;20.60;97.80;;;;;;5052717;28;20099;-81
2023/07/10 12:02:37;;;;;;;34.90;18.77;;;20.70;98.00;;;;;;5064378;28;20483;-80
2023/07/10 12:05:13;;;;;;;26.15;17.35;;;20.70;96.30;;;;;;5042994;28;20045;-84
2023/07/10 12:07:51;;;;;;;29.50;16.85;;;20.80;96.30;;;;;;5042953;28;20057;-80
2023/07/10 12:10:18;;;;;;;28.55;16.17;;;20.70;95.40;;;;;;5071238;28;20052;-80
2023/07/10 12:12:45;;;;;;;26.75;16.55;;;20.80;95.80;;;;;;5053477;28;20057;-83
2023/07/10 12:15:12;;;;;;;27.92;16.58;;;20.80;95.80;;;;;;5074389;28;20040;-82
2023/07/10 12:17:40;;;;;;;26.77;16.25;;;20.70;95.60;;;;;;5052223;28;20869;-80
2023/07/10 12:20:28;;;;;;;29.75;17.38;;;20.80;96.00;;;;;;5055335;28;20049;-83
2023/07/10 12:23:04;;;;;;;31.27;16.58;;;20.80;96.80;;;;;;5069952;28;20136;-82
2023/07/10 12:25:31;;;;;;;28.80;17.70;;;20.90;97.90;;;;;;5052959;28;20054;-81
2023/07/10 12:28:08;;;;;;;29.25;19.35;;;21.20;100.00;;;;;;5053685;28;20044;-83
2023/07/10 12:30:39;;;;;;;28.75;18.10;;;21.50;99.40;;;;;;5058955;28;20109;-82
2023/07/10 12:33:30;;;;;;;27.25;19.17;;;21.80;99.70;;;;;;5042282;28;20048;-83
2023/07/10 12:36:20;;;;;;;32.28;18.70;;;22.00;96.90;;;;;;5070875;28;20052;-83
2023/07/10 12:38:49;;;;;;;27.80;18.15;;;22.10;96.20;;;;;;5075376;28;20097;-83
2023/07/10 12:41:21;;;;;;;24.30;18.27;;;22.10;94.80;;;;;;5056654;28;20080;-83
2023/07/10 12:43:53;;;;;;;33.30;17.88;;;22.10;92.80;;;;;;5071397;28;20091;-83
2023/07/10 12:46:29;;;;;;;29.65;17.95;;;22.10;92.50;;;;;;5045379;28;20082;-83
2023/07/10 12:49:00;;;;;;;32.80;20.55;;;22.00;92.20;;;;;;5049909;28;20809;-81
2023/07/10 12:51:31;;;;;;;34.85;20.40;;;21.90;92.80;;;;;;5058146;28;20048;-81
2023/07/10 12:54:01;;;;;;;27.88;18.25;;;21.80;94.20;;;;;;5066500;28;20053;-80
2023/07/10 12:56:37;;;;;;;27.15;18.67;;;21.70;92.70;;;;;;5055372;28;20434;-81
2023/07/10 12:59:26;;;;;;;30.70;19.13;;;21.60;94.70;;;;;;5051893;28;20105;-80
2023/07/10 13:02:02;;;;;;;25.90;17.10;;;21.80;96.70;;;;;;5044080;28;20049;-80